Oak Ridge, TN

8:22 AM EDT on July 01, 2015 (GMT -0400)
Eyman Osage Rd | | Change Station
CLOSE
Current Station
Personal Weather Station
Location: Oak Ridge, TN
Elevation: 1109 ft
Nearby Weather Stations

Elev 1109 ft 36.03 °N, 84.26 °W | Updated 6 minutes ago

Mostly Cloudy
Mostly Cloudy
68.7 °F
Feels Like 68.7 °F
N
0.0
Wind Variable Wind from ENE

Today
High -- | Low -- °F
--% Chance of Precip.
Yesterday
High -- | Low -- °F
Precip. -- in
6:23 AM 8:57 PM
Full, 100% visible
Pressure 29.97 in
Visibility 4.0 miles
Clouds Mostly Cloudy 1000 ft
Dew Point 68 °F
Humidity 99%
Rainfall 0.05 in
Snow Depth Not available.
UV 1 out of 12
Pollen 3.20 out of 12
Air Quality Not available.
Flu Activity Not available.
METAR KOQT 011153Z AUTO 00000KT 4SM BR BKN010 22/20 A3000 RMK AO2 SLP147 60000 70028 T02170200 10217 20200 51006

More Conditions Fewer Conditions

Pressure 29.97 in
Visibility 4.0 miles
Clouds Mostly Cloudy 1000 ft
Dew Point 68 °F
Humidity 99%
Rainfall 0.05 in
Snow Depth Not available.
UV 1 out of 12
Pollen 3.20 out of 12
Air Quality Not available.
Flu Activity Not available.
METAR KOQT 011153Z AUTO 00000KT 4SM BR BKN010 22/20 A3000 RMK AO2 SLP147 60000 70028 T02170200 10217 20200 51006

More Conditions Fewer Conditions

10-Day Weather Forecast

×

Almanac

Astronomy

Jul. 01, 2015 Rise Set
Actual Time
Civil Twilight
Nautical Twilight
Astronomical Twilight
Moon
Length of Visible Light
Length of Day
Tomorrow will be .
, % of the Moon is Illuminated

Today's Extremes

State Highs State Lows

Community

WunderPhotos

Upload Photos

1,834,183 photos uploaded!

WunderBlogs® & News

Nearby

Air Quality

  Air Quality AQ Index Pollutant
Not available.

Snow Depth

Station Depth Elevation

Earthquake Activity

City Distance Mag. Time & Date
Minimum magnitude displayed is 2.5.

Coastal Water Temperatures

Place Temperature

Stations

Nearby Weather Stations

Station Location Temp. Windchill Dew Point Humidity Wind Precip. Elev Updated Type